sensor_id;sensor_type;location;lat;lon;timestamp;temperature;humidity
16781;DHT22;8507;50.056;8.248;2023-06-14T00:00:20;19.50;99.90
16781;DHT22;8507;50.056;8.248;2023-06-14T00:02:46;19.50;99.90
16781;DHT22;8507;50.056;8.248;2023-06-14T00:05:11;19.50;99.90
16781;DHT22;8507;50.056;8.248;2023-06-14T00:07:41;19.40;99.90
16781;DHT22;8507;50.056;8.248;2023-06-14T00:10:11;19.40;99.90
16781;DHT22;8507;50.056;8.248;2023-06-14T00:12:37;19.40;99.90
16781;DHT22;8507;50.056;8.248;2023-06-14T00:15:04;19.40;99.90
16781;DHT22;8507;50.056;8.248;2023-06-14T00:17:30;19.40;99.90
16781;DHT22;8507;50.056;8.248;2023-06-14T00:19:57;19.30;99.90
16781;DHT22;8507;50.056;8.248;2023-06-14T00:22:23;19.40;99.90
16781;DHT22;8507;50.056;8.248;2023-06-14T00:24:54;19.40;99.90
16781;DHT22;8507;50.056;8.248;2023-06-14T00:27:19;19.40;99.90
16781;DHT22;8507;50.056;8.248;2023-06-14T00:29:45;19.40;99.90
16781;DHT22;8507;50.056;8.248;2023-06-14T00:32:10;19.40;99.90
16781;DHT22;8507;50.056;8.248;2023-06-14T00:34:36;19.30;99.90
16781;DHT22;8507;50.056;8.248;2023-06-14T00:37:02;19.30;99.90
16781;DHT22;8507;50.056;8.248;2023-06-14T00:39:27;19.40;99.90
16781;DHT22;8507;50.056;8.248;2023-06-14T00:41:53;19.30;99.90
16781;DHT22;8507;50.056;8.248;2023-06-14T00:44:18;19.30;99.90
16781;DHT22;8507;50.056;8.248;2023-06-14T00:46:47;19.30;99.90
16781;DHT22;8507;50.056;8.248;2023-06-14T00:49:14;19.30;99.90
16781;DHT22;8507;50.056;8.248;2023-06-14T00:51:41;19.20;99.90
16781;DHT22;8507;50.056;8.248;2023-06-14T00:54:07;19.20;99.90
16781;DHT22;8507;50.056;8.248;2023-06-14T00:56:35;19.20;99.90
16781;DHT22;8507;50.056;8.248;2023-06-14T00:59:01;19.20;99.90
16781;DHT22;8507;50.056;8.248;2023-06-14T01:01:27;19.20;99.90
16781;DHT22;8507;50.056;8.248;2023-06-14T01:03:54;19.20;99.90
16781;DHT22;8507;50.056;8.248;2023-06-14T01:06:48;19.10;99.90
16781;DHT22;8507;50.056;8.248;2023-06-14T01:09:27;19.00;99.90
16781;DHT22;8507;50.056;8.248;2023-06-14T01:12:11;19.00;99.90
16781;DHT22;8507;50.056;8.248;2023-06-14T01:14:39;19.00;99.90
16781;DHT22;8507;50.056;8.248;2023-06-14T01:17:08;18.90;99.90
16781;DHT22;8507;50.056;8.248;2023-06-14T01:19:45;18.90;99.90
16781;DHT22;8507;50.056;8.248;2023-06-14T01:22:11;18.80;99.90
16781;DHT22;8507;50.056;8.248;2023-06-14T01:24:36;18.80;99.90
16781;DHT22;8507;50.056;8.248;2023-06-14T01:27:05;18.70;99.90
16781;DHT22;8507;50.056;8.248;2023-06-14T01:29:31;18.70;99.90
16781;DHT22;8507;50.056;8.248;2023-06-14T01:32:01;18.80;99.90
16781;DHT22;8507;50.056;8.248;2023-06-14T01:34:27;18.70;99.90
16781;DHT22;8507;50.056;8.248;2023-06-14T01:36:53;18.70;99.90
16781;DHT22;8507;50.056;8.248;2023-06-14T01:39:23;18.60;99.90
16781;DHT22;8507;50.056;8.248;2023-06-14T01:41:49;18.60;99.90
16781;DHT22;8507;50.056;8.248;2023-06-14T01:44:17;18.60;99.90
16781;DHT22;8507;50.056;8.248;2023-06-14T01:46:44;18.50;99.90
16781;DHT22;8507;50.056;8.248;2023-06-14T01:49:11;18.50;99.90
16781;DHT22;8507;50.056;8.248;2023-06-14T01:51:36;18.50;99.90
16781;DHT22;8507;50.056;8.248;2023-06-14T01:54:02;18.40;99.90
16781;DHT22;8507;50.056;8.248;2023-06-14T01:56:27;18.40;99.90
16781;DHT22;8507;50.056;8.248;2023-06-14T01:58:53;18.40;99.90
16781;DHT22;8507;50.056;8.248;2023-06-14T02:01:19;18.30;99.90
16781;DHT22;8507;50.056;8.248;2023-06-14T02:03:46;18.30;99.90
16781;DHT22;8507;50.056;8.248;2023-06-14T02:06:12;18.30;99.90
16781;DHT22;8507;50.056;8.248;2023-06-14T02:08:37;18.30;99.90
16781;DHT22;8507;50.056;8.248;2023-06-14T02:11:03;18.30;99.90
16781;DHT22;8507;50.056;8.248;2023-06-14T02:13:28;18.30;99.90
16781;DHT22;8507;50.056;8.248;2023-06-14T02:15:54;18.20;99.90
16781;DHT22;8507;50.056;8.248;2023-06-14T02:18:20;18.20;99.90
16781;DHT22;8507;50.056;8.248;2023-06-14T02:20:46;18.20;99.90
16781;DHT22;8507;50.056;8.248;2023-06-14T02:23:12;18.20;99.90
16781;DHT22;8507;50.056;8.248;2023-06-14T02:25:38;18.20;99.90
16781;DHT22;8507;50.056;8.248;2023-06-14T02:28:05;18.20;99.90
16781;DHT22;8507;50.056;8.248;2023-06-14T02:30:30;18.10;99.90
16781;DHT22;8507;50.056;8.248;2023-06-14T02:32:56;18.20;99.90
16781;DHT22;8507;50.056;8.248;2023-06-14T02:35:22;18.10;99.90
16781;DHT22;8507;50.056;8.248;2023-06-14T02:37:51;18.10;99.90
16781;DHT22;8507;50.056;8.248;2023-06-14T02:40:18;18.00;99.90
16781;DHT22;8507;50.056;8.248;2023-06-14T02:42:44;18.00;99.90
16781;DHT22;8507;50.056;8.248;2023-06-14T02:45:09;18.00;99.90
16781;DHT22;8507;50.056;8.248;2023-06-14T02:47:35;18.00;99.90
16781;DHT22;8507;50.056;8.248;2023-06-14T02:50:00;17.90;99.90
16781;DHT22;8507;50.056;8.248;2023-06-14T02:52:26;17.90;99.90
16781;DHT22;8507;50.056;8.248;2023-06-14T02:54:51;17.80;99.90
16781;DHT22;8507;50.056;8.248;2023-06-14T02:57:17;17.80;99.90
16781;DHT22;8507;50.056;8.248;2023-06-14T02:59:43;17.80;99.90
16781;DHT22;8507;50.056;8.248;2023-06-14T03:02:08;17.80;99.90
16781;DHT22;8507;50.056;8.248;2023-06-14T03:04:34;17.80;99.90
16781;DHT22;8507;50.056;8.248;2023-06-14T03:07:02;17.70;99.90
16781;DHT22;8507;50.056;8.248;2023-06-14T03:09:35;17.70;99.90
16781;DHT22;8507;50.056;8.248;2023-06-14T03:12:00;17.60;99.90
16781;DHT22;8507;50.056;8.248;2023-06-14T03:14:26;17.60;99.90
16781;DHT22;8507;50.056;8.248;2023-06-14T03:16:52;17.50;99.90
16781;DHT22;8507;50.056;8.248;2023-06-14T03:19:22;17.50;99.90
16781;DHT22;8507;50.056;8.248;2023-06-14T03:21:48;17.50;99.90
16781;DHT22;8507;50.056;8.248;2023-06-14T03:24:14;17.40;99.90
16781;DHT22;8507;50.056;8.248;2023-06-14T03:26:41;17.40;99.90
16781;DHT22;8507;50.056;8.248;2023-06-14T03:29:07;17.40;99.90
16781;DHT22;8507;50.056;8.248;2023-06-14T03:31:34;17.40;99.90
16781;DHT22;8507;50.056;8.248;2023-06-14T03:34:01;17.50;99.90
16781;DHT22;8507;50.056;8.248;2023-06-14T03:36:26;17.50;99.90
16781;DHT22;8507;50.056;8.248;2023-06-14T03:38:53;17.80;99.90
16781;DHT22;8507;50.056;8.248;2023-06-14T03:41:18;18.20;99.90
16781;DHT22;8507;50.056;8.248;2023-06-14T03:43:44;18.70;99.90
16781;DHT22;8507;50.056;8.248;2023-06-14T03:46:10;18.90;99.90
16781;DHT22;8507;50.056;8.248;2023-06-14T03:48:35;19.10;99.90
16781;DHT22;8507;50.056;8.248;2023-06-14T03:51:01;19.20;99.90
16781;DHT22;8507;50.056;8.248;2023-06-14T03:53:27;19.20;99.90
16781;DHT22;8507;50.056;8.248;2023-06-14T03:55:54;19.50;99.90
16781;DHT22;8507;50.056;8.248;2023-06-14T03:58:20;19.50;99.90
16781;DHT22;8507;50.056;8.248;2023-06-14T04:00:46;20.10;99.90
16781;DHT22;8507;50.056;8.248;2023-06-14T04:03:11;20.60;99.90
16781;DHT22;8507;50.056;8.248;2023-06-14T04:05:39;21.00;99.90
16781;DHT22;8507;50.056;8.248;2023-06-14T04:08:08;21.10;99.90
16781;DHT22;8507;50.056;8.248;2023-06-14T04:10:34;21.00;99.90
16781;DHT22;8507;50.056;8.248;2023-06-14T04:13:00;21.10;99.90
16781;DHT22;8507;50.056;8.248;2023-06-14T04:15:25;21.30;99.90
16781;DHT22;8507;50.056;8.248;2023-06-14T04:17:53;21.50;99.90
16781;DHT22;8507;50.056;8.248;2023-06-14T04:20:22;21.40;99.90
16781;DHT22;8507;50.056;8.248;2023-06-14T04:22:49;21.90;99.90
16781;DHT22;8507;50.056;8.248;2023-06-14T04:25:15;21.90;99.90
16781;DHT22;8507;50.056;8.248;2023-06-14T04:27:40;21.30;99.90
16781;DHT22;8507;50.056;8.248;2023-06-14T04:30:07;20.70;99.90
16781;DHT22;8507;50.056;8.248;2023-06-14T04:32:33;20.60;99.90
16781;DHT22;8507;50.056;8.248;2023-06-14T04:35:04;20.20;99.90
16781;DHT22;8507;50.056;8.248;2023-06-14T04:37:30;19.80;99.90
16781;DHT22;8507;50.056;8.248;2023-06-14T04:39:56;19.60;99.90
16781;DHT22;8507;50.056;8.248;2023-06-14T04:42:22;19.50;99.90
16781;DHT22;8507;50.056;8.248;2023-06-14T04:44:51;19.30;99.90
16781;DHT22;8507;50.056;8.248;2023-06-14T04:47:17;19.30;99.90
16781;DHT22;8507;50.056;8.248;2023-06-14T04:49:43;19.30;99.90
16781;DHT22;8507;50.056;8.248;2023-06-14T04:52:08;19.10;99.90
16781;DHT22;8507;50.056;8.248;2023-06-14T04:54:36;19.00;99.90
16781;DHT22;8507;50.056;8.248;2023-06-14T04:57:03;18.90;99.90
16781;DHT22;8507;50.056;8.248;2023-06-14T04:59:29;18.90;99.90
16781;DHT22;8507;50.056;8.248;2023-06-14T05:01:58;18.90;99.90
16781;DHT22;8507;50.056;8.248;2023-06-14T05:04:25;19.10;99.90
16781;DHT22;8507;50.056;8.248;2023-06-14T05:06:52;19.10;99.90
16781;DHT22;8507;50.056;8.248;2023-06-14T05:09:19;19.30;99.90
16781;DHT22;8507;50.056;8.248;2023-06-14T05:11:45;19.30;99.90
16781;DHT22;8507;50.056;8.248;2023-06-14T05:14:11;19.20;99.90
16781;DHT22;8507;50.056;8.248;2023-06-14T05:16:37;19.30;99.90
16781;DHT22;8507;50.056;8.248;2023-06-14T05:19:04;19.20;99.90
16781;DHT22;8507;50.056;8.248;2023-06-14T05:21:30;19.10;99.90
16781;DHT22;8507;50.056;8.248;2023-06-14T05:23:56;19.10;99.90
16781;DHT22;8507;50.056;8.248;2023-06-14T05:26:21;19.10;99.90
16781;DHT22;8507;50.056;8.248;2023-06-14T05:28:50;19.10;99.90
16781;DHT22;8507;50.056;8.248;2023-06-14T05:31:17;19.20;99.90
16781;DHT22;8507;50.056;8.248;2023-06-14T05:33:43;19.10;99.90
16781;DHT22;8507;50.056;8.248;2023-06-14T05:36:08;19.00;99.90
16781;DHT22;8507;50.056;8.248;2023-06-14T05:38:34;19.10;99.90
16781;DHT22;8507;50.056;8.248;2023-06-14T05:40:59;19.10;99.90
16781;DHT22;8507;50.056;8.248;2023-06-14T05:43:25;19.10;99.90
16781;DHT22;8507;50.056;8.248;2023-06-14T05:45:50;19.10;99.90
16781;DHT22;8507;50.056;8.248;2023-06-14T05:48:16;19.20;99.90
16781;DHT22;8507;50.056;8.248;2023-06-14T05:50:41;19.20;99.90
16781;DHT22;8507;50.056;8.248;2023-06-14T05:53:07;19.30;99.90
16781;DHT22;8507;50.056;8.248;2023-06-14T05:55:32;19.30;99.90
16781;DHT22;8507;50.056;8.248;2023-06-14T05:57:58;19.40;99.90
16781;DHT22;8507;50.056;8.248;2023-06-14T06:00:23;19.50;99.90
16781;DHT22;8507;50.056;8.248;2023-06-14T06:02:49;19.40;99.90
16781;DHT22;8507;50.056;8.248;2023-06-14T06:05:15;19.40;99.90
16781;DHT22;8507;50.056;8.248;2023-06-14T06:07:41;19.50;99.90
16781;DHT22;8507;50.056;8.248;2023-06-14T06:10:07;19.70;99.90
16781;DHT22;8507;50.056;8.248;2023-06-14T06:12:33;19.70;99.90
16781;DHT22;8507;50.056;8.248;2023-06-14T06:14:59;19.90;99.90
16781;DHT22;8507;50.056;8.248;2023-06-14T06:17:28;19.80;99.90
16781;DHT22;8507;50.056;8.248;2023-06-14T06:19:54;19.90;99.90
16781;DHT22;8507;50.056;8.248;2023-06-14T06:22:19;19.90;99.90
16781;DHT22;8507;50.056;8.248;2023-06-14T06:24:45;20.00;99.90
16781;DHT22;8507;50.056;8.248;2023-06-14T06:27:11;20.20;99.90
16781;DHT22;8507;50.056;8.248;2023-06-14T06:29:38;20.30;99.90
16781;DHT22;8507;50.056;8.248;2023-06-14T06:32:04;20.30;99.90
16781;DHT22;8507;50.056;8.248;2023-06-14T06:34:29;20.10;99.90
16781;DHT22;8507;50.056;8.248;2023-06-14T06:36:55;20.00;99.90
16781;DHT22;8507;50.056;8.248;2023-06-14T06:39:20;19.80;99.90
16781;DHT22;8507;50.056;8.248;2023-06-14T06:41:46;20.00;99.90
16781;DHT22;8507;50.056;8.248;2023-06-14T06:44:11;19.90;99.90
16781;DHT22;8507;50.056;8.248;2023-06-14T06:46:38;20.00;99.90
16781;DHT22;8507;50.056;8.248;2023-06-14T06:49:06;20.00;99.90
16781;DHT22;8507;50.056;8.248;2023-06-14T06:51:32;19.90;99.90
16781;DHT22;8507;50.056;8.248;2023-06-14T06:53:58;20.00;99.90
16781;DHT22;8507;50.056;8.248;2023-06-14T06:56:23;20.20;99.90
16781;DHT22;8507;50.056;8.248;2023-06-14T06:58:50;20.20;99.90
16781;DHT22;8507;50.056;8.248;2023-06-14T07:01:16;20.00;99.90
16781;DHT22;8507;50.056;8.248;2023-06-14T07:03:42;19.90;99.90
16781;DHT22;8507;50.056;8.248;2023-06-14T07:06:07;19.80;99.90
16781;DHT22;8507;50.056;8.248;2023-06-14T07:08:33;19.60;99.90
16781;DHT22;8507;50.056;8.248;2023-06-14T07:10:59;19.60;99.90
16781;DHT22;8507;50.056;8.248;2023-06-14T07:13:25;19.70;99.90
16781;DHT22;8507;50.056;8.248;2023-06-14T07:15:50;20.10;99.90
16781;DHT22;8507;50.056;8.248;2023-06-14T07:18:18;20.00;99.90
16781;DHT22;8507;50.056;8.248;2023-06-14T07:20:44;19.90;99.90
16781;DHT22;8507;50.056;8.248;2023-06-14T07:23:10;20.00;99.90
16781;DHT22;8507;50.056;8.248;2023-06-14T07:25:36;19.80;99.90
16781;DHT22;8507;50.056;8.248;2023-06-14T07:28:01;19.70;99.90
16781;DHT22;8507;50.056;8.248;2023-06-14T07:30:27;20.10;99.90
16781;DHT22;8507;50.056;8.248;2023-06-14T07:32:55;20.10;99.90
16781;DHT22;8507;50.056;8.248;2023-06-14T07:35:21;20.40;99.90
16781;DHT22;8507;50.056;8.248;2023-06-14T07:37:46;20.40;99.90
16781;DHT22;8507;50.056;8.248;2023-06-14T07:40:13;20.40;99.90
16781;DHT22;8507;50.056;8.248;2023-06-14T07:42:38;20.60;99.90
16781;DHT22;8507;50.056;8.248;2023-06-14T07:45:04;20.50;99.90
16781;DHT22;8507;50.056;8.248;2023-06-14T07:47:30;20.50;99.90
16781;DHT22;8507;50.056;8.248;2023-06-14T07:49:56;20.80;99.90
16781;DHT22;8507;50.056;8.248;2023-06-14T07:52:21;20.70;99.90
16781;DHT22;8507;50.056;8.248;2023-06-14T07:54:47;20.60;99.90
16781;DHT22;8507;50.056;8.248;2023-06-14T07:57:13;20.60;99.90
16781;DHT22;8507;50.056;8.248;2023-06-14T07:59:38;21.00;99.90
16781;DHT22;8507;50.056;8.248;2023-06-14T08:02:04;21.00;99.90
16781;DHT22;8507;50.056;8.248;2023-06-14T08:04:30;21.20;99.90
16781;DHT22;8507;50.056;8.248;2023-06-14T08:06:56;21.10;99.90
16781;DHT22;8507;50.056;8.248;2023-06-14T08:09:22;21.50;99.90
16781;DHT22;8507;50.056;8.248;2023-06-14T08:11:48;21.50;99.90
16781;DHT22;8507;50.056;8.248;2023-06-14T08:14:13;21.50;99.90
16781;DHT22;8507;50.056;8.248;2023-06-14T08:16:39;21.00;99.90
16781;DHT22;8507;50.056;8.248;2023-06-14T08:19:04;21.20;99.90
16781;DHT22;8507;50.056;8.248;2023-06-14T08:21:30;20.80;99.90
16781;DHT22;8507;50.056;8.248;2023-06-14T08:23:58;21.00;99.90
16781;DHT22;8507;50.056;8.248;2023-06-14T08:26:24;21.40;99.90
16781;DHT22;8507;50.056;8.248;2023-06-14T08:28:54;21.70;99.90
16781;DHT22;8507;50.056;8.248;2023-06-14T08:31:20;21.40;99.90
16781;DHT22;8507;50.056;8.248;2023-06-14T08:33:46;21.60;99.90
16781;DHT22;8507;50.056;8.248;2023-06-14T08:36:11;21.60;99.90
16781;DHT22;8507;50.056;8.248;2023-06-14T08:38:38;21.50;99.90
16781;DHT22;8507;50.056;8.248;2023-06-14T08:41:05;22.00;99.90
16781;DHT22;8507;50.056;8.248;2023-06-14T08:43:34;21.70;99.90
16781;DHT22;8507;50.056;8.248;2023-06-14T08:46:02;21.90;99.90
16781;DHT22;8507;50.056;8.248;2023-06-14T08:48:28;21.70;99.90
16781;DHT22;8507;50.056;8.248;2023-06-14T08:50:59;22.10;99.90
16781;DHT22;8507;50.056;8.248;2023-06-14T08:53:30;21.90;99.90
16781;DHT22;8507;50.056;8.248;2023-06-14T08:55:58;21.70;99.90
16781;DHT22;8507;50.056;8.248;2023-06-14T08:58:27;21.60;99.90
16781;DHT22;8507;50.056;8.248;2023-06-14T09:00:55;22.10;99.90
16781;DHT22;8507;50.056;8.248;2023-06-14T09:03:21;22.40;99.90
16781;DHT22;8507;50.056;8.248;2023-06-14T09:05:47;22.20;99.90
16781;DHT22;8507;50.056;8.248;2023-06-14T09:08:13;22.70;99.90
16781;DHT22;8507;50.056;8.248;2023-06-14T09:10:40;22.40;99.90
16781;DHT22;8507;50.056;8.248;2023-06-14T09:13:06;22.20;99.90
16781;DHT22;8507;50.056;8.248;2023-06-14T09:15:32;22.30;99.90
16781;DHT22;8507;50.056;8.248;2023-06-14T09:17:58;22.30;99.90
16781;DHT22;8507;50.056;8.248;2023-06-14T09:20:24;22.20;99.90
16781;DHT22;8507;50.056;8.248;2023-06-14T09:22:50;22.30;99.90
16781;DHT22;8507;50.056;8.248;2023-06-14T09:25:16;22.40;99.90
16781;DHT22;8507;50.056;8.248;2023-06-14T09:27:41;21.90;99.90
16781;DHT22;8507;50.056;8.248;2023-06-14T09:30:09;22.20;99.90
16781;DHT22;8507;50.056;8.248;2023-06-14T09:32:39;22.50;99.90
16781;DHT22;8507;50.056;8.248;2023-06-14T09:35:07;22.40;99.90
16781;DHT22;8507;50.056;8.248;2023-06-14T09:37:33;22.20;99.90
16781;DHT22;8507;50.056;8.248;2023-06-14T09:40:00;22.10;99.90
16781;DHT22;8507;50.056;8.248;2023-06-14T09:42:26;22.50;99.90
16781;DHT22;8507;50.056;8.248;2023-06-14T09:44:54;22.70;99.90
16781;DHT22;8507;50.056;8.248;2023-06-14T09:47:20;22.80;99.90
16781;DHT22;8507;50.056;8.248;2023-06-14T09:49:47;22.30;99.90
16781;DHT22;8507;50.056;8.248;2023-06-14T09:52:18;22.50;99.90
16781;DHT22;8507;50.056;8.248;2023-06-14T09:54:45;22.50;99.90
16781;DHT22;8507;50.056;8.248;2023-06-14T09:57:22;22.90;99.90
16781;DHT22;8507;50.056;8.248;2023-06-14T09:59:50;23.00;99.90
16781;DHT22;8507;50.056;8.248;2023-06-14T10:04:56;23.00;99.90
16781;DHT22;8507;50.056;8.248;2023-06-14T10:07:25;22.90;99.90
16781;DHT22;8507;50.056;8.248;2023-06-14T10:09:53;22.80;99.90
16781;DHT22;8507;50.056;8.248;2023-06-14T10:12:19;23.00;99.90
16781;DHT22;8507;50.056;8.248;2023-06-14T10:14:49;23.70;99.90
16781;DHT22;8507;50.056;8.248;2023-06-14T10:17:47;23.30;99.90
16781;DHT22;8507;50.056;8.248;2023-06-14T10:22:58;23.30;99.90
16781;DHT22;8507;50.056;8.248;2023-06-14T10:25:32;23.90;99.90
16781;DHT22;8507;50.056;8.248;2023-06-14T10:28:14;23.30;99.90
16781;DHT22;8507;50.056;8.248;2023-06-14T10:33:28;23.90;99.90
16781;DHT22;8507;50.056;8.248;2023-06-14T10:36:31;24.00;99.90
16781;DHT22;8507;50.056;8.248;2023-06-14T10:39:17;24.00;99.90
16781;DHT22;8507;50.056;8.248;2023-06-14T10:41:54;23.70;99.90
16781;DHT22;8507;50.056;8.248;2023-06-14T10:46:52;23.60;99.90
16781;DHT22;8507;50.056;8.248;2023-06-14T10:49:18;23.00;99.90
16781;DHT22;8507;50.056;8.248;2023-06-14T10:51:48;23.30;99.90
16781;DHT22;8507;50.056;8.248;2023-06-14T10:54:21;23.40;99.90
16781;DHT22;8507;50.056;8.248;2023-06-14T10:56:49;23.80;99.90
16781;DHT22;8507;50.056;8.248;2023-06-14T10:59:17;24.00;99.90
16781;DHT22;8507;50.056;8.248;2023-06-14T11:02:20;23.90;99.90
16781;DHT22;8507;50.056;8.248;2023-06-14T11:04:51;24.10;99.90
16781;DHT22;8507;50.056;8.248;2023-06-14T11:07:47;23.30;99.90
16781;DHT22;8507;50.056;8.248;2023-06-14T11:12:50;23.20;99.90
16781;DHT22;8507;50.056;8.248;2023-06-14T11:15:17;24.10;99.90
16781;DHT22;8507;50.056;8.248;2023-06-14T11:17:52;23.80;99.90
16781;DHT22;8507;50.056;8.248;2023-06-14T11:20:25;24.50;99.90
16781;DHT22;8507;50.056;8.248;2023-06-14T11:22:52;24.40;99.90
16781;DHT22;8507;50.056;8.248;2023-06-14T11:25:17;24.10;99.90
16781;DHT22;8507;50.056;8.248;2023-06-14T11:27:44;22.90;99.90
16781;DHT22;8507;50.056;8.248;2023-06-14T11:30:10;22.90;99.90
16781;DHT22;8507;50.056;8.248;2023-06-14T11:32:37;23.40;99.90
16781;DHT22;8507;50.056;8.248;2023-06-14T11:35:04;23.40;99.90
16781;DHT22;8507;50.056;8.248;2023-06-14T11:37:33;23.70;99.90
16781;DHT22;8507;50.056;8.248;2023-06-14T11:40:00;23.90;99.90
16781;DHT22;8507;50.056;8.248;2023-06-14T11:42:28;24.50;99.90
16781;DHT22;8507;50.056;8.248;2023-06-14T11:44:55;23.60;99.90
16781;DHT22;8507;50.056;8.248;2023-06-14T11:47:21;23.60;99.90
16781;DHT22;8507;50.056;8.248;2023-06-14T11:49:47;23.90;99.90
16781;DHT22;8507;50.056;8.248;2023-06-14T11:52:13;23.90;99.90
16781;DHT22;8507;50.056;8.248;2023-06-14T11:54:38;24.30;99.90
16781;DHT22;8507;50.056;8.248;2023-06-14T11:57:06;24.60;99.90
16781;DHT22;8507;50.056;8.248;2023-06-14T11:59:38;24.20;99.90
16781;DHT22;8507;50.056;8.248;2023-06-14T12:02:04;24.00;99.90
16781;DHT22;8507;50.056;8.248;2023-06-14T12:04:29;24.90;99.90
16781;DHT22;8507;50.056;8.248;2023-06-14T12:06:55;24.40;99.90
16781;DHT22;8507;50.056;8.248;2023-06-14T12:09:23;24.50;99.90
16781;DHT22;8507;50.056;8.248;2023-06-14T12:11:50;24.40;99.90
16781;DHT22;8507;50.056;8.248;2023-06-14T12:14:16;24.50;99.90
16781;DHT22;8507;50.056;8.248;2023-06-14T12:16:42;24.30;99.90
16781;DHT22;8507;50.056;8.248;2023-06-14T12:19:16;24.80;99.90
16781;DHT22;8507;50.056;8.248;2023-06-14T12:21:43;24.70;99.90
16781;DHT22;8507;50.056;8.248;2023-06-14T12:24:12;24.80;99.90
16781;DHT22;8507;50.056;8.248;2023-06-14T12:26:38;24.90;99.90
16781;DHT22;8507;50.056;8.248;2023-06-14T12:29:06;24.90;99.90
16781;DHT22;8507;50.056;8.248;2023-06-14T12:31:32;25.20;99.90
16781;DHT22;8507;50.056;8.248;2023-06-14T12:33:58;24.20;99.90
16781;DHT22;8507;50.056;8.248;2023-06-14T12:36:24;25.10;99.90
16781;DHT22;8507;50.056;8.248;2023-06-14T12:38:50;25.60;99.90
16781;DHT22;8507;50.056;8.248;2023-06-14T12:41:19;26.40;99.90
16781;DHT22;8507;50.056;8.248;2023-06-14T12:43:46;26.40;99.90
16781;DHT22;8507;50.056;8.248;2023-06-14T12:46:12;26.60;99.90
16781;DHT22;8507;50.056;8.248;2023-06-14T12:48:37;26.00;99.90
16781;DHT22;8507;50.056;8.248;2023-06-14T12:51:03;24.90;99.90
16781;DHT22;8507;50.056;8.248;2023-06-14T12:53:28;24.30;99.90
16781;DHT22;8507;50.056;8.248;2023-06-14T12:55:54;24.00;99.90
16781;DHT22;8507;50.056;8.248;2023-06-14T12:58:19;24.20;99.90
16781;DHT22;8507;50.056;8.248;2023-06-14T13:00:46;24.10;99.90
16781;DHT22;8507;50.056;8.248;2023-06-14T13:03:11;23.60;99.90
16781;DHT22;8507;50.056;8.248;2023-06-14T13:05:37;23.90;99.90
16781;DHT22;8507;50.056;8.248;2023-06-14T13:08:06;24.20;99.90
16781;DHT22;8507;50.056;8.248;2023-06-14T13:10:34;23.70;99.90
16781;DHT22;8507;50.056;8.248;2023-06-14T13:12:59;24.20;99.90
16781;DHT22;8507;50.056;8.248;2023-06-14T13:15:25;24.90;99.90
16781;DHT22;8507;50.056;8.248;2023-06-14T13:17:51;25.20;99.90
16781;DHT22;8507;50.056;8.248;2023-06-14T13:20:17;24.90;99.90
16781;DHT22;8507;50.056;8.248;2023-06-14T13:22:42;24.50;99.90
16781;DHT22;8507;50.056;8.248;2023-06-14T13:25:08;24.70;99.90
16781;DHT22;8507;50.056;8.248;2023-06-14T13:27:34;25.00;99.90
16781;DHT22;8507;50.056;8.248;2023-06-14T13:30:00;25.10;99.90
16781;DHT22;8507;50.056;8.248;2023-06-14T13:32:25;25.70;99.90
16781;DHT22;8507;50.056;8.248;2023-06-14T13:34:51;26.30;99.90
16781;DHT22;8507;50.056;8.248;2023-06-14T13:37:16;25.40;99.90
16781;DHT22;8507;50.056;8.248;2023-06-14T13:39:42;24.90;99.90
16781;DHT22;8507;50.056;8.248;2023-06-14T13:42:08;24.80;99.90
16781;DHT22;8507;50.056;8.248;2023-06-14T13:44:33;24.90;99.90
16781;DHT22;8507;50.056;8.248;2023-06-14T13:46:59;24.80;99.90
16781;DHT22;8507;50.056;8.248;2023-06-14T13:49:25;25.00;99.90
16781;DHT22;8507;50.056;8.248;2023-06-14T13:51:50;25.10;99.90
16781;DHT22;8507;50.056;8.248;2023-06-14T13:54:20;25.60;99.90
16781;DHT22;8507;50.056;8.248;2023-06-14T13:56:46;24.60;99.90
16781;DHT22;8507;50.056;8.248;2023-06-14T13:59:11;24.20;99.90
16781;DHT22;8507;50.056;8.248;2023-06-14T14:01:37;24.50;99.90
16781;DHT22;8507;50.056;8.248;2023-06-14T14:04:03;24.30;99.90
16781;DHT22;8507;50.056;8.248;2023-06-14T14:06:28;24.80;99.90
16781;DHT22;8507;50.056;8.248;2023-06-14T14:08:54;25.30;99.90
16781;DHT22;8507;50.056;8.248;2023-06-14T14:11:20;25.00;99.90
16781;DHT22;8507;50.056;8.248;2023-06-14T14:13:46;24.90;99.90
16781;DHT22;8507;50.056;8.248;2023-06-14T14:16:12;25.30;99.90
16781;DHT22;8507;50.056;8.248;2023-06-14T14:18:38;24.30;99.90
16781;DHT22;8507;50.056;8.248;2023-06-14T14:21:04;23.60;99.90
16781;DHT22;8507;50.056;8.248;2023-06-14T14:23:29;23.50;99.90
16781;DHT22;8507;50.056;8.248;2023-06-14T14:25:55;23.50;99.90
16781;DHT22;8507;50.056;8.248;2023-06-14T14:28:21;23.90;99.90
16781;DHT22;8507;50.056;8.248;2023-06-14T14:30:47;23.90;99.90
16781;DHT22;8507;50.056;8.248;2023-06-14T14:33:13;23.90;99.90
16781;DHT22;8507;50.056;8.248;2023-06-14T14:35:44;24.30;99.90
16781;DHT22;8507;50.056;8.248;2023-06-14T14:38:14;24.60;99.90
16781;DHT22;8507;50.056;8.248;2023-06-14T14:40:43;24.20;99.90
16781;DHT22;8507;50.056;8.248;2023-06-14T14:43:09;23.90;99.90
16781;DHT22;8507;50.056;8.248;2023-06-14T14:45:36;24.10;99.90
16781;DHT22;8507;50.056;8.248;2023-06-14T14:48:02;24.50;99.90
16781;DHT22;8507;50.056;8.248;2023-06-14T14:50:28;24.40;99.90
16781;DHT22;8507;50.056;8.248;2023-06-14T14:52:53;24.80;99.90
16781;DHT22;8507;50.056;8.248;2023-06-14T14:55:19;24.70;99.90
16781;DHT22;8507;50.056;8.248;2023-06-14T14:57:46;24.60;99.90
16781;DHT22;8507;50.056;8.248;2023-06-14T15:00:12;24.60;99.90
16781;DHT22;8507;50.056;8.248;2023-06-14T15:02:37;25.00;99.90
16781;DHT22;8507;50.056;8.248;2023-06-14T15:05:03;24.60;99.90
16781;DHT22;8507;50.056;8.248;2023-06-14T15:07:30;25.10;99.90
16781;DHT22;8507;50.056;8.248;2023-06-14T15:09:57;25.20;99.90
16781;DHT22;8507;50.056;8.248;2023-06-14T15:12:23;25.20;99.90
16781;DHT22;8507;50.056;8.248;2023-06-14T15:14:52;25.30;99.90
16781;DHT22;8507;50.056;8.248;2023-06-14T15:17:19;24.50;99.90
16781;DHT22;8507;50.056;8.248;2023-06-14T15:19:45;24.10;99.90
16781;DHT22;8507;50.056;8.248;2023-06-14T15:22:11;24.20;99.90
16781;DHT22;8507;50.056;8.248;2023-06-14T15:24:37;24.00;99.90
16781;DHT22;8507;50.056;8.248;2023-06-14T15:27:03;24.10;99.90
16781;DHT22;8507;50.056;8.248;2023-06-14T15:29:28;24.20;99.90
16781;DHT22;8507;50.056;8.248;2023-06-14T15:31:54;24.30;99.90
16781;DHT22;8507;50.056;8.248;2023-06-14T15:34:20;24.30;99.90
16781;DHT22;8507;50.056;8.248;2023-06-14T15:36:46;24.10;99.90
16781;DHT22;8507;50.056;8.248;2023-06-14T15:39:11;24.30;99.90
16781;DHT22;8507;50.056;8.248;2023-06-14T15:41:37;23.90;99.90
16781;DHT22;8507;50.056;8.248;2023-06-14T15:44:03;24.10;99.90
16781;DHT22;8507;50.056;8.248;2023-06-14T15:46:29;24.30;99.90
16781;DHT22;8507;50.056;8.248;2023-06-14T15:48:54;24.30;99.90
16781;DHT22;8507;50.056;8.248;2023-06-14T15:51:20;24.40;99.90
16781;DHT22;8507;50.056;8.248;2023-06-14T15:53:45;24.70;99.90
16781;DHT22;8507;50.056;8.248;2023-06-14T15:56:11;24.60;99.90